Time;durP1;ratioP1;P1;durP2;ratioP2;P2;SDS_P1;SDS_P2;PMS_P1;PMS_P2;Temp;Humidity;BMP_temperature;BMP_pressure;BME280_temperature;BME280_humidity;BME280_pressure;Samples;Min_cycle;Max_cycle;Signal;HPM_P1;HPM_P2
2022/08/21 00:02:03;;;;;;;29.00;21.03;;;20.40;99.90;20.00;100062;;;;571570;244;24096;-82
2022/08/21 00:04:31;;;;;;;33.97;22.17;;;20.40;99.90;20.10;100063;;;;564078;253;23213;-81
2022/08/21 00:06:59;;;;;;;27.40;20.17;;;20.40;99.90;20.00;100061;;;;552990;253;24103;-81
2022/08/21 00:09:27;;;;;;;26.83;20.37;;;20.40;99.90;20.00;100060;;;;571527;250;24070;-81
2022/08/21 00:11:55;;;;;;;27.23;20.03;;;20.40;99.90;20.00;100064;;;;555740;254;24133;-82
2022/08/21 00:14:27;;;;;;;22.80;18.03;;;20.30;99.90;20.00;100050;;;;556289;254;24113;-81
2022/08/21 00:16:51;;;;;;;23.97;18.37;;;20.30;99.90;20.00;100047;;;;562959;249;24153;-81
2022/08/21 00:19:23;;;;;;;23.60;16.97;;;20.30;99.90;20.00;100052;;;;556278;254;24112;-82
2022/08/21 00:21:48;;;;;;;22.13;17.50;;;20.20;99.90;19.90;100046;;;;556267;254;24155;-81
2022/08/21 00:24:17;;;;;;;22.67;16.27;;;20.30;99.90;20.00;100056;;;;556300;254;24132;-82
2022/08/21 00:26:48;;;;;;;19.97;16.57;;;20.20;99.90;20.00;100050;;;;555886;254;24147;-81
2022/08/21 00:29:13;;;;;;;21.10;16.53;;;20.20;99.90;20.00;100056;;;;555698;254;24132;-81
2022/08/21 00:31:41;;;;;;;19.70;15.80;;;20.20;99.90;19.90;100059;;;;555539;254;24141;-81
2022/08/21 00:34:12;;;;;;;19.13;16.20;;;20.20;99.90;19.90;100054;;;;555586;254;23177;-82
2022/08/21 00:36:37;;;;;;;19.83;16.27;;;20.20;99.90;19.90;100050;;;;555267;253;23160;-82
2022/08/21 00:39:05;;;;;;;21.33;16.87;;;20.20;99.90;19.90;100049;;;;556840;252;24103;-82
2022/08/21 00:41:33;;;;;;;22.33;16.57;;;20.20;99.90;19.90;100048;;;;556564;254;24125;-82
2022/08/21 00:44:01;;;;;;;20.47;16.63;;;20.10;99.90;19.80;100044;;;;564945;253;24144;-81
2022/08/21 00:46:28;;;;;;;21.13;16.63;;;20.10;99.90;19.80;100044;;;;556533;254;24146;-81
2022/08/21 00:48:57;;;;;;;23.53;16.83;;;20.00;99.90;19.80;100041;;;;556780;254;24100;-81
2022/08/21 00:51:47;;;;;;;17.80;14.17;;;20.00;99.90;19.70;100038;;;;556767;254;24099;-81
2022/08/21 00:54:15;;;;;;;20.80;14.50;;;20.00;99.90;19.70;100042;;;;563020;248;25208;-82
2022/08/21 00:56:43;;;;;;;17.37;14.50;;;20.00;99.90;19.70;100041;;;;556505;254;24155;-83
2022/08/21 00:59:12;;;;;;;18.97;13.17;;;19.90;99.90;19.70;100043;;;;556069;254;24147;-81
2022/08/21 01:01:43;;;;;;;19.00;13.90;;;19.90;99.90;19.60;100044;;;;556524;253;24100;-81
2022/08/21 01:04:12;;;;;;;17.13;13.93;;;19.90;99.90;19.60;100038;;;;564048;253;24141;-81
2022/08/21 01:06:38;;;;;;;15.57;12.90;;;19.90;99.90;19.60;100045;;;;563262;249;24157;-81
2022/08/21 01:09:06;;;;;;;13.80;12.23;;;19.90;99.90;19.60;100037;;;;556513;254;24173;-81
2022/08/21 01:11:35;;;;;;;17.60;14.63;;;19.90;99.90;19.60;100044;;;;564352;253;23140;-81
2022/08/21 01:14:06;;;;;;;16.43;13.03;;;19.90;99.90;19.70;100040;;;;563090;248;24091;-81
2022/08/21 01:16:32;;;;;;;16.43;13.57;;;19.90;99.90;19.70;100038;;;;563777;254;24127;-81
2022/08/21 01:19:03;;;;;;;14.30;12.50;;;20.00;99.90;19.70;100037;;;;556252;254;24135;-81
2022/08/21 01:21:28;;;;;;;14.37;11.27;;;20.00;99.90;19.70;100039;;;;556250;253;24174;-81
2022/08/21 01:23:55;;;;;;;14.77;13.00;;;20.00;99.90;19.70;100036;;;;555804;254;24179;-81
2022/08/21 01:26:23;;;;;;;16.43;13.03;;;20.00;99.90;19.80;100038;;;;571489;250;24085;-81
2022/08/21 01:29:27;;;;;;;14.03;12.53;;;20.00;99.90;19.80;100033;;;;555765;252;24163;-81
2022/08/21 01:31:55;;;;;;;14.80;13.20;;;20.00;99.90;19.80;100037;;;;552817;254;24133;-80
2022/08/21 01:34:23;;;;;;;16.17;12.37;;;20.10;99.90;19.80;100041;;;;556105;254;24194;-81
2022/08/21 01:36:52;;;;;;;13.93;11.93;;;20.10;99.90;19.90;100039;;;;556050;254;24112;-82
2022/08/21 01:39:19;;;;;;;13.93;12.60;;;20.10;99.90;19.90;100029;;;;555436;254;23136;-80
2022/08/21 01:41:47;;;;;;;13.53;11.97;;;20.20;99.90;19.90;100024;;;;556058;254;24113;-81
2022/08/21 01:44:15;;;;;;;13.53;11.50;;;20.20;99.90;19.90;100034;;;;563683;248;23144;-80
2022/08/21 01:46:43;;;;;;;13.03;11.10;;;20.20;99.90;19.90;100031;;;;563186;248;23085;-80
2022/08/21 01:49:11;;;;;;;13.03;11.63;;;20.20;99.90;20.00;100030;;;;557050;253;24160;-81
2022/08/21 01:51:39;;;;;;;23.57;18.17;;;20.30;99.90;20.00;100033;;;;557528;254;24119;-81
2022/08/21 01:54:07;;;;;;;37.27;25.67;;;20.30;99.90;20.00;100036;;;;572630;249;24099;-80
2022/08/21 01:56:41;;;;;;;54.23;33.50;;;20.30;99.90;20.00;100035;;;;557054;254;23140;-81
2022/08/21 01:59:08;;;;;;;45.73;29.30;;;20.30;99.90;20.00;100024;;;;564651;253;23142;-81
2022/08/21 02:01:40;;;;;;;28.93;21.37;;;20.30;99.90;20.00;100021;;;;556361;254;24101;-81
2022/08/21 02:04:04;;;;;;;25.67;18.47;;;20.30;99.90;20.00;100020;;;;556776;252;24115;-81
2022/08/21 02:06:32;;;;;;;21.17;16.60;;;20.30;99.90;20.00;100015;;;;556874;253;23124;-81
2022/08/21 02:09:00;;;;;;;15.30;12.83;;;20.30;99.90;20.00;100016;;;;556179;254;23139;-81
2022/08/21 02:11:28;;;;;;;13.17;11.87;;;20.30;99.90;20.00;100022;;;;556213;254;24117;-81
2022/08/21 02:13:56;;;;;;;13.23;11.73;;;20.20;99.90;20.00;100016;;;;556623;254;24102;-81
2022/08/21 02:16:27;;;;;;;13.10;10.67;;;20.20;99.90;20.00;100010;;;;556672;254;24096;-81
2022/08/21 02:18:53;;;;;;;13.30;9.87;;;20.20;99.90;19.90;100012;;;;562838;250;24129;-81
2022/08/21 02:21:21;;;;;;;11.23;10.07;;;20.20;99.90;19.90;100005;;;;556567;252;24096;-81
2022/08/21 02:23:48;;;;;;;11.50;10.43;;;20.20;99.90;19.90;100007;;;;556648;254;24243;-81
2022/08/21 02:26:16;;;;;;;12.87;10.17;;;20.20;99.90;19.90;100006;;;;556413;252;24118;-81
2022/08/21 02:28:44;;;;;;;11.53;10.43;;;20.10;99.90;19.90;100004;;;;555965;254;24144;-81
2022/08/21 02:31:13;;;;;;;11.43;10.33;;;20.10;99.90;19.80;100008;;;;555896;254;24156;-81
2022/08/21 02:33:42;;;;;;;13.60;12.07;;;20.10;99.90;19.80;100006;;;;563887;253;23125;-81
2022/08/21 02:36:12;;;;;;;13.03;11.73;;;20.10;99.90;19.80;100001;;;;555948;254;24118;-81
2022/08/21 02:38:40;;;;;;;14.07;12.60;;;20.10;99.90;19.70;100001;;;;563760;249;24170;-81
2022/08/21 02:41:08;;;;;;;13.67;12.13;;;20.00;99.90;19.70;99998;;;;563675;253;24125;-81
2022/08/21 02:43:36;;;;;;;12.90;11.60;;;20.00;99.90;19.70;100002;;;;555562;254;24152;-81
2022/08/21 02:46:04;;;;;;;13.37;12.07;;;20.00;99.90;19.70;99993;;;;555976;254;24200;-81
2022/08/21 02:48:32;;;;;;;15.87;12.30;;;20.00;99.90;19.70;99988;;;;555285;254;24156;-81
2022/08/21 02:51:03;;;;;;;12.77;11.57;;;20.00;99.90;19.70;99986;;;;563684;253;24148;-81
2022/08/21 02:53:34;;;;;;;13.73;12.37;;;20.00;99.90;19.70;99986;;;;555402;254;24116;-81
2022/08/21 02:55:59;;;;;;;13.07;11.80;;;20.00;99.90;19.70;99979;;;;560643;251;24129;-81
2022/08/21 02:58:27;;;;;;;14.20;11.90;;;20.00;99.90;19.70;99982;;;;560820;249;24162;-82
2022/08/21 03:00:55;;;;;;;13.37;11.53;;;20.10;99.90;19.70;99973;;;;556629;253;24200;-81
2022/08/21 03:03:23;;;;;;;13.17;11.33;;;20.10;99.90;19.70;99980;;;;556637;254;24157;-81
2022/08/21 03:05:51;;;;;;;13.67;12.20;;;20.00;99.90;19.70;99983;;;;556251;252;24164;-81
2022/08/21 03:08:19;;;;;;;15.70;12.70;;;20.00;99.90;19.70;99979;;;;553618;254;24118;-81
2022/08/21 03:10:46;;;;;;;15.10;12.53;;;20.00;99.90;19.70;99983;;;;564252;248;24104;-81
2022/08/21 03:13:17;;;;;;;13.47;12.07;;;20.00;99.90;19.70;99983;;;;555803;253;25223;-81
2022/08/21 03:15:43;;;;;;;13.40;12.03;;;20.10;99.90;19.70;99984;;;;556258;254;24166;-81
2022/08/21 03:18:14;;;;;;;14.13;12.60;;;20.10;99.90;19.70;99987;;;;556282;254;24162;-81
2022/08/21 03:20:40;;;;;;;14.67;13.17;;;20.10;99.90;19.70;99992;;;;556012;254;24183;-81
2022/08/21 03:23:08;;;;;;;15.33;13.33;;;20.10;99.90;19.70;99983;;;;556121;254;24105;-82
2022/08/21 03:25:40;;;;;;;15.60;13.13;;;20.10;99.90;19.70;99983;;;;553324;254;24115;-81
2022/08/21 03:28:06;;;;;;;15.30;13.17;;;20.10;99.90;19.70;99989;;;;555390;254;24130;-81
2022/08/21 03:30:34;;;;;;;14.17;12.77;;;20.10;99.90;19.70;99985;;;;556068;254;24186;-82
2022/08/21 03:33:02;;;;;;;15.40;13.40;;;20.10;99.90;19.80;99986;;;;555783;254;24145;-81
2022/08/21 03:35:32;;;;;;;15.13;13.37;;;20.10;99.90;19.70;99986;;;;555489;254;24111;-82
2022/08/21 03:37:58;;;;;;;14.13;12.73;;;20.10;99.90;19.80;99991;;;;552629;254;24198;-82
2022/08/21 03:40:25;;;;;;;16.03;13.37;;;20.10;99.90;19.80;99988;;;;555445;254;24159;-81
2022/08/21 03:42:53;;;;;;;13.50;12.10;;;20.10;99.90;19.80;99988;;;;552716;254;24168;-82
2022/08/21 03:45:21;;;;;;;15.67;13.07;;;20.10;99.90;19.80;99990;;;;555474;254;24100;-82
2022/08/21 03:47:52;;;;;;;15.60;12.83;;;20.10;99.90;19.80;99989;;;;560747;254;24133;-81
2022/08/21 03:50:20;;;;;;;14.57;13.07;;;20.20;99.90;19.80;99994;;;;555316;254;24100;-81
2022/08/21 03:52:51;;;;;;;15.60;13.97;;;20.20;99.90;19.80;99992;;;;555367;254;24182;-81
2022/08/21 03:55:16;;;;;;;14.57;12.73;;;20.20;99.90;19.90;99993;;;;555133;254;24112;-82
2022/08/21 03:57:44;;;;;;;15.13;13.57;;;20.20;99.90;19.90;99993;;;;555422;254;23177;-82
2022/08/21 04:00:12;;;;;;;16.33;13.47;;;20.20;99.90;19.90;100008;;;;555340;252;24104;-82
2022/08/21 04:02:40;;;;;;;16.00;13.50;;;20.20;99.90;19.90;100001;;;;571030;248;24094;-82
2022/08/21 04:05:08;;;;;;;13.90;12.43;;;20.20;99.90;19.90;100002;;;;552686;254;24119;-81
2022/08/21 04:07:36;;;;;;;14.33;12.83;;;20.20;99.90;19.90;99998;;;;555442;254;24142;-81
2022/08/21 04:10:04;;;;;;;20.23;17.85;;;20.30;99.90;19.90;100001;;;;550631;254;35500;-82
2022/08/21 04:12:32;;;;;;;17.40;14.73;;;20.30;99.90;19.90;100003;;;;553894;252;24110;-81
2022/08/21 04:15:01;;;;;;;14.63;13.20;;;20.30;99.90;20.00;100008;;;;557066;252;24103;-82
2022/08/21 04:17:28;;;;;;;14.10;12.57;;;20.30;99.90;19.90;100005;;;;556761;252;24133;-82
2022/08/21 04:19:57;;;;;;;13.20;11.70;;;20.30;99.90;19.90;100006;;;;556765;252;24117;-82
2022/08/21 04:22:26;;;;;;;13.60;12.20;;;20.30;99.90;19.90;100017;;;;563348;248;23134;-82
2022/08/21 04:24:54;;;;;;;13.60;11.37;;;20.30;99.90;20.00;100006;;;;556569;253;23132;-82
2022/08/21 04:27:23;;;;;;;13.60;11.63;;;20.40;99.90;20.00;100013;;;;556402;254;24107;-82
2022/08/21 04:29:51;;;;;;;14.10;12.57;;;20.30;99.90;20.00;100006;;;;556224;253;24168;-82
2022/08/21 04:32:22;;;;;;;14.40;12.00;;;20.40;99.90;20.00;100008;;;;556164;254;23155;-82
2022/08/21 04:34:50;;;;;;;12.10;10.90;;;20.40;99.90;20.00;100005;;;;555885;254;23142;-81
2022/08/21 04:37:19;;;;;;;13.13;11.10;;;20.40;99.90;20.00;100002;;;;556077;254;24223;-81
2022/08/21 04:39:48;;;;;;;19.20;17.17;;;20.40;99.90;20.00;100004;;;;551655;252;35405;-80
2022/08/21 04:42:17;;;;;;;17.03;13.60;;;20.50;99.90;20.10;100005;;;;556479;253;24138;-81
2022/08/21 04:44:45;;;;;;;14.80;13.13;;;20.50;99.90;20.10;100010;;;;556078;254;24246;-81
2022/08/21 04:47:14;;;;;;;14.07;12.53;;;20.60;99.90;20.20;100008;;;;556164;254;23158;-81
2022/08/21 04:49:43;;;;;;;14.27;11.77;;;20.60;99.90;20.20;100006;;;;556241;254;24111;-81
2022/08/21 04:52:11;;;;;;;12.93;11.60;;;20.60;99.90;20.20;100003;;;;563609;253;23147;-81
2022/08/21 04:54:39;;;;;;;13.47;12.03;;;20.60;99.90;20.20;100013;;;;555532;254;24162;-81
2022/08/21 04:57:07;;;;;;;13.40;11.87;;;20.60;99.90;20.30;100008;;;;555426;252;24138;-81
2022/08/21 04:59:41;;;;;;;12.83;11.50;;;20.70;99.90;20.30;100017;;;;555501;254;24164;-81
2022/08/21 05:02:10;;;;;;;15.47;13.07;;;20.70;99.90;20.30;100019;;;;555847;254;24201;-81
2022/08/21 05:04:38;;;;;;;13.40;11.93;;;20.70;99.90;20.30;100032;;;;555794;254;24175;-80
2022/08/21 05:07:07;;;;;;;13.23;11.23;;;20.80;99.90;20.40;100030;;;;561127;248;24114;-81
2022/08/21 05:09:38;;;;;;;13.67;12.27;;;20.70;99.90;20.40;100027;;;;555787;254;24203;-81
2022/08/21 05:12:03;;;;;;;18.43;12.27;;;20.80;99.90;20.40;100037;;;;562651;250;23121;-82
2022/08/21 05:14:31;;;;;;;14.63;12.57;;;20.80;99.90;20.40;100031;;;;552795;254;23136;-81
2022/08/21 05:17:01;;;;;;;17.83;12.53;;;20.80;99.90;20.40;100038;;;;556068;254;24141;-81
2022/08/21 05:19:27;;;;;;;13.43;11.23;;;20.80;99.90;20.40;100035;;;;562648;250;23123;-81
2022/08/21 05:21:54;;;;;;;15.33;12.30;;;20.80;99.90;20.40;100039;;;;556010;253;24189;-81
2022/08/21 05:24:22;;;;;;;12.90;11.50;;;20.80;99.90;20.50;100045;;;;556899;253;24163;-81
2022/08/21 05:26:50;;;;;;;15.63;12.10;;;20.90;99.90;20.50;100044;;;;556927;254;24100;-81
2022/08/21 05:29:18;;;;;;;16.30;11.77;;;20.90;99.90;20.50;100044;;;;553908;254;23123;-81
2022/08/21 05:31:50;;;;;;;13.57;11.63;;;20.90;99.90;20.50;100050;;;;564602;253;23139;-81
2022/08/21 05:34:14;;;;;;;15.63;12.93;;;20.90;99.90;20.50;100050;;;;555936;254;24114;-81
2022/08/21 05:36:42;;;;;;;13.27;12.00;;;20.90;99.90;20.60;100050;;;;564320;250;23164;-81
2022/08/21 05:39:10;;;;;;;13.60;11.33;;;20.90;99.90;20.60;100056;;;;564540;253;23151;-82
2022/08/21 05:41:39;;;;;;;11.93;10.87;;;20.90;99.90;20.60;100062;;;;556259;254;24112;-82
2022/08/21 05:44:07;;;;;;;12.03;10.83;;;21.00;99.90;20.60;100055;;;;556535;254;24131;-82
2022/08/21 05:46:36;;;;;;;11.60;10.57;;;21.00;99.90;20.60;100056;;;;556084;254;24142;-81
2022/08/21 05:49:05;;;;;;;11.50;10.30;;;21.10;99.90;20.70;100049;;;;556451;252;25169;-80
2022/08/21 05:51:33;;;;;;;11.27;10.27;;;21.10;99.90;20.70;100058;;;;556061;254;23127;-81
2022/08/21 05:54:01;;;;;;;10.43;9.47;;;21.10;99.90;20.70;100059;;;;563995;253;23154;-81
2022/08/21 05:56:29;;;;;;;10.60;9.70;;;21.10;99.90;20.70;100056;;;;556027;254;24168;-81
2022/08/21 05:58:57;;;;;;;11.50;10.40;;;21.10;99.90;20.80;100052;;;;556195;254;24107;-81
2022/08/21 06:01:28;;;;;;;10.53;9.63;;;21.20;99.90;20.80;100051;;;;555908;254;24105;-81
2022/08/21 06:03:53;;;;;;;10.50;9.20;;;21.20;99.90;20.90;100051;;;;563659;254;24129;-81
2022/08/21 06:06:21;;;;;;;9.87;8.97;;;21.20;99.90;20.90;100047;;;;555911;253;24125;-81
2022/08/21 06:08:49;;;;;;;9.93;8.93;;;21.30;99.90;20.90;100048;;;;555842;254;25190;-81
2022/08/21 06:11:17;;;;;;;9.87;8.93;;;21.30;99.90;20.90;100050;;;;555997;252;23246;-82
2022/08/21 06:13:45;;;;;;;9.30;8.47;;;21.30;99.90;20.90;100045;;;;555837;254;24129;-82
2022/08/21 06:16:13;;;;;;;8.33;7.53;;;21.30;99.90;20.90;100047;;;;563793;253;24118;-82
2022/08/21 06:18:40;;;;;;;8.53;7.83;;;21.30;99.90;21.00;100042;;;;555503;253;23211;-82
2022/08/21 06:21:11;;;;;;;9.00;8.20;;;21.30;99.90;21.00;100040;;;;552774;254;23142;-82
2022/08/21 06:23:36;;;;;;;8.07;7.43;;;21.40;99.90;21.10;100037;;;;552762;254;24163;-82
2022/08/21 06:26:04;;;;;;;7.50;6.90;;;21.50;99.90;21.20;100036;;;;556259;253;23143;-82
2022/08/21 06:28:32;;;;;;;8.13;7.43;;;21.50;99.90;21.30;100037;;;;555874;254;23140;-82
2022/08/21 06:31:00;;;;;;;8.27;7.57;;;21.60;99.90;21.30;100033;;;;561579;254;24099;-82
2022/08/21 06:33:28;;;;;;;7.80;7.20;;;21.70;99.90;21.30;100030;;;;556241;254;24112;-82
2022/08/21 06:35:56;;;;;;;8.23;7.53;;;21.70;99.90;21.40;100039;;;;556818;253;24105;-82
2022/08/21 06:38:25;;;;;;;8.60;7.90;;;21.90;99.90;21.50;100035;;;;556850;254;24158;-81
2022/08/21 06:40:53;;;;;;;7.83;7.23;;;21.90;99.90;21.50;100027;;;;556743;254;24107;-81
2022/08/21 06:43:22;;;;;;;6.57;6.07;;;21.90;99.90;21.50;100024;;;;556602;254;24114;-81
2022/08/21 06:45:50;;;;;;;7.33;6.80;;;21.90;99.90;21.50;100038;;;;556735;254;24100;-82
2022/08/21 06:48:18;;;;;;;6.97;6.27;;;21.90;99.90;21.50;100039;;;;556540;254;24129;-82
2022/08/21 06:50:46;;;;;;;6.50;6.00;;;21.80;99.90;21.30;100042;;;;556643;254;23137;-82
2022/08/21 06:53:17;;;;;;;6.20;5.80;;;21.70;99.90;21.20;100044;;;;561666;254;23129;-81
2022/08/21 06:55:42;;;;;;;6.07;5.67;;;21.70;99.90;21.10;100046;;;;563486;254;23368;-82
2022/08/21 06:58:09;;;;;;;5.57;5.20;;;21.50;99.90;21.00;100047;;;;552990;253;24122;-81
2022/08/21 07:00:40;;;;;;;5.07;4.57;;;21.40;99.90;20.90;100046;;;;563904;253;23181;-81
2022/08/21 07:03:08;;;;;;;5.40;4.90;;;21.30;99.90;20.70;100057;;;;553017;254;24115;-82
2022/08/21 07:05:36;;;;;;;4.60;4.20;;;21.10;99.90;20.60;100061;;;;552507;254;23148;-81
2022/08/21 07:08:04;;;;;;;5.73;5.33;;;21.00;99.90;20.40;100059;;;;556039;252;24128;-82
2022/08/21 07:10:33;;;;;;;5.57;5.17;;;20.70;99.90;20.40;100061;;;;556217;254;23132;-81
2022/08/21 07:13:01;;;;;;;6.13;5.50;;;20.70;99.90;20.30;100059;;;;555867;254;24115;-82
2022/08/21 07:15:31;;;;;;;7.20;6.03;;;20.60;99.90;20.20;100058;;;;556040;254;24183;-82
2022/08/21 07:18:02;;;;;;;6.73;5.60;;;20.50;99.90;20.10;100054;;;;562593;250;23142;-82
2022/08/21 07:20:27;;;;;;;7.03;6.43;;;20.30;99.90;20.00;100054;;;;552709;254;24170;-83
2022/08/21 07:22:55;;;;;;;9.43;6.33;;;20.20;99.90;19.90;100057;;;;555508;253;24116;-82
2022/08/21 07:25:27;;;;;;;6.97;6.23;;;20.20;99.90;19.80;100065;;;;555356;254;24130;-84
2022/08/21 07:27:51;;;;;;;7.90;6.87;;;20.00;99.90;19.70;100068;;;;555223;253;24148;-82
2022/08/21 07:30:20;;;;;;;9.33;6.90;;;19.90;99.90;19.60;100062;;;;553001;254;24104;-82
2022/08/21 07:32:52;;;;;;;7.60;7.00;;;19.80;99.90;19.50;100056;;;;563626;248;24161;-81
2022/08/21 07:35:19;;;;;;;11.57;6.67;;;19.80;99.90;19.50;100054;;;;556145;254;24115;-81
2022/08/21 07:37:47;;;;;;;20.33;7.30;;;19.80;99.90;19.40;100057;;;;552947;253;24148;-81
2022/08/21 07:40:16;;;;;;;8.57;7.13;;;19.70;99.90;19.30;100054;;;;555762;254;24238;-81
2022/08/21 07:42:47;;;;;;;11.57;8.20;;;19.60;99.90;19.30;100053;;;;562826;249;24079;-82
2022/08/21 07:45:15;;;;;;;12.63;7.90;;;19.60;99.90;19.30;100058;;;;552570;254;24119;-81
2022/08/21 07:47:39;;;;;;;8.90;8.00;;;19.50;99.90;19.30;100053;;;;557141;253;24133;-83
2022/08/21 07:50:10;;;;;;;11.00;7.97;;;19.60;99.90;19.30;100058;;;;554039;254;24130;-82
2022/08/21 07:52:35;;;;;;;8.63;7.83;;;19.60;99.90;19.30;100065;;;;553731;254;24124;-82
2022/08/21 07:55:04;;;;;;;13.47;8.33;;;19.50;99.90;19.30;100075;;;;556958;254;24223;-81
2022/08/21 07:57:32;;;;;;;10.47;8.10;;;19.50;99.90;19.40;100074;;;;556017;254;24133;-82
2022/08/21 08:00:00;;;;;;;10.00;9.00;;;19.70;99.90;19.40;100066;;;;556287;254;24111;-82
2022/08/21 08:02:28;;;;;;;13.23;9.13;;;19.70;99.90;19.50;100069;;;;556441;254;24204;-81
2022/08/21 08:04:59;;;;;;;17.27;8.97;;;19.80;99.90;19.60;100070;;;;555828;254;24255;-81
2022/08/21 08:07:30;;;;;;;10.43;9.33;;;19.90;99.90;19.80;100063;;;;563155;250;24100;-82
2022/08/21 08:09:58;;;;;;;13.03;8.83;;;20.10;99.90;20.00;100069;;;;556119;253;24122;-83
2022/08/21 08:12:26;;;;;;;12.27;9.20;;;20.20;99.90;20.10;100061;;;;563731;249;24107;-83
2022/08/21 08:14:51;;;;;;;12.03;8.90;;;20.30;99.90;20.20;100060;;;;563562;249;24127;-82
2022/08/21 08:17:21;;;;;;;12.67;8.73;;;20.40;99.90;20.20;100061;;;;556067;254;24135;-83
2022/08/21 08:19:48;;;;;;;9.53;8.17;;;20.40;99.90;20.30;100061;;;;556321;253;23144;-82
2022/08/21 08:22:14;;;;;;;9.97;8.60;;;20.50;99.90;20.30;100076;;;;556121;253;24140;-82
2022/08/21 08:24:42;;;;;;;11.93;8.47;;;20.50;99.90;20.40;100074;;;;555779;254;24168;-83
2022/08/21 08:27:10;;;;;;;10.57;9.00;;;20.50;99.90;20.60;100077;;;;556003;254;24106;-84
2022/08/21 08:29:38;;;;;;;11.30;9.00;;;20.80;99.90;20.80;100076;;;;555954;254;24130;-83
2022/08/21 08:32:07;;;;;;;11.17;9.50;;;20.90;99.90;20.90;100073;;;;552868;254;23133;-83
2022/08/21 08:34:34;;;;;;;12.37;8.63;;;21.10;99.90;20.90;100073;;;;553016;254;24122;-81
2022/08/21 08:37:02;;;;;;;9.30;8.40;;;21.10;99.90;20.90;100077;;;;555788;254;24122;-82
2022/08/21 08:39:30;;;;;;;9.60;8.70;;;21.10;99.90;21.00;100076;;;;553008;254;23173;-82
2022/08/21 08:42:00;;;;;;;8.73;7.73;;;21.20;99.90;21.10;100084;;;;553001;254;23125;-82
2022/08/21 08:44:29;;;;;;;12.30;8.10;;;21.30;99.90;21.10;100092;;;;553106;253;24130;-82
2022/08/21 08:46:57;;;;;;;8.40;7.27;;;21.40;99.90;21.10;100082;;;;556281;254;23132;-81
2022/08/21 08:49:35;;;;;;;12.13;7.63;;;21.50;99.90;21.30;100081;;;;562860;250;23125;-82
2022/08/21 08:52:13;;;;;;;8.20;7.50;;;21.50;99.90;21.60;100079;;;;548207;253;35467;-82
2022/08/21 08:54:41;;;;;;;7.13;6.63;;;22.10;99.90;21.90;100086;;;;555880;254;24190;-82
2022/08/21 08:57:15;;;;;;;6.57;6.00;;;22.60;99.90;22.20;100079;;;;555622;253;24140;-82
2022/08/21 08:59:46;;;;;;;6.40;5.47;;;22.50;99.90;22.70;100069;;;;564681;253;24119;-83
2022/08/21 09:02:13;;;;;;;5.10;4.80;;;23.10;99.90;22.80;100077;;;;556407;252;23151;-82
2022/08/21 09:04:45;;;;;;;5.37;4.97;;;23.50;99.90;23.00;100080;;;;556193;254;24101;-82
2022/08/21 09:07:29;;;;;;;4.70;4.30;;;23.50;99.90;23.10;100078;;;;553231;253;24138;-82
2022/08/21 09:10:22;;;;;;;5.17;4.87;;;23.50;99.90;22.90;100085;;;;553304;254;24118;-82
2022/08/21 09:12:49;;;;;;;4.90;4.50;;;23.40;99.90;22.90;100088;;;;553547;254;24209;-82
2022/08/21 09:15:29;;;;;;;4.20;3.80;;;23.30;99.90;22.70;100085;;;;555981;253;24111;-81
2022/08/21 09:18:05;;;;;;;5.37;4.87;;;23.10;99.90;22.80;100076;;;;553268;254;24113;-81
2022/08/21 09:20:33;;;;;;;4.37;4.00;;;23.20;99.90;22.80;100082;;;;552454;254;24114;-81
2022/08/21 09:23:19;;;;;;;4.50;4.20;;;23.20;99.90;22.70;100078;;;;552975;254;24134;-81
2022/08/21 09:25:56;;;;;;;4.87;4.00;;;22.90;99.90;22.50;100079;;;;552304;254;24134;-82
2022/08/21 09:28:24;;;;;;;4.80;4.33;;;22.90;99.90;22.30;100078;;;;555719;254;24185;-81
2022/08/21 09:30:52;;;;;;;5.07;4.00;;;22.70;99.90;22.20;100082;;;;556160;254;24110;-81
2022/08/21 09:33:20;;;;;;;4.37;3.97;;;22.60;99.90;22.00;100082;;;;556250;252;24133;-81
2022/08/21 09:35:58;;;;;;;4.77;4.37;;;22.30;99.90;21.80;100094;;;;555975;254;24110;-82
2022/08/21 09:38:31;;;;;;;5.47;4.63;;;22.00;99.90;21.60;100092;;;;565481;250;24083;-81
2022/08/21 09:41:05;;;;;;;3.77;3.47;;;21.90;99.90;21.50;100082;;;;552701;254;23156;-82
2022/08/21 09:43:33;;;;;;;5.63;4.63;;;21.80;99.90;21.30;100076;;;;552891;254;24104;-81
2022/08/21 09:46:07;;;;;;;4.40;4.00;;;21.60;99.90;21.00;100079;;;;552799;254;24127;-82
2022/08/21 09:48:47;;;;;;;5.47;4.97;;;21.30;99.90;20.80;100069;;;;555558;254;24108;-82
2022/08/21 09:51:14;;;;;;;5.63;5.13;;;21.10;99.90;20.70;100078;;;;555337;254;24129;-82
2022/08/21 09:53:45;;;;;;;6.13;5.30;;;21.00;99.90;20.70;100085;;;;552515;254;24165;-80
2022/08/21 09:59:16;;;;;;;6.43;5.50;;;20.90;99.90;20.70;100086;;;;552493;254;23179;-83
2022/08/21 10:01:44;;;;;;;5.57;4.87;;;20.90;99.90;20.70;100086;;;;552630;253;24155;-83
2022/08/21 10:04:12;;;;;;;5.50;5.00;;;21.00;99.90;20.80;100096;;;;555195;253;24188;-82
2022/08/21 10:06:40;;;;;;;6.07;5.67;;;21.10;99.90;20.90;100099;;;;563412;253;23161;-82
2022/08/21 10:09:11;;;;;;;5.57;5.17;;;21.10;99.90;20.90;100104;;;;555397;254;24096;-82
2022/08/21 10:11:39;;;;;;;5.83;5.27;;;21.20;99.90;21.00;100105;;;;556583;253;24115;-82
2022/08/21 10:14:12;;;;;;;6.43;4.43;;;21.20;99.90;20.90;100092;;;;553525;253;25209;-81
2022/08/21 10:17:01;;;;;;;5.27;4.77;;;21.20;99.90;21.00;100098;;;;555987;254;23178;-82
2022/08/21 10:19:38;;;;;;;4.60;4.20;;;21.20;99.90;21.10;100095;;;;552931;254;24157;-81
2022/08/21 10:22:20;;;;;;;4.13;3.73;;;21.40;99.90;21.00;100086;;;;556282;252;23134;-82
2022/08/21 10:25:06;;;;;;;4.23;3.73;;;21.40;99.90;21.20;100091;;;;555746;254;23160;-81
2022/08/21 10:27:43;;;;;;;3.60;3.30;;;21.50;99.90;21.30;100089;;;;555748;254;24204;-83
2022/08/21 10:30:20;;;;;;;4.17;3.77;;;21.60;99.90;21.40;100101;;;;555904;252;23154;-82
2022/08/21 10:33:18;;;;;;;3.40;3.20;;;21.80;99.90;21.70;100096;;;;545982;254;24119;-83
2022/08/21 10:35:55;;;;;;;4.10;3.50;;;22.10;99.90;21.90;100102;;;;555977;254;24134;-83
2022/08/21 10:38:50;;;;;;;3.80;3.47;;;22.20;99.90;21.80;100102;;;;552805;254;24114;-83
2022/08/21 10:41:40;;;;;;;4.33;3.40;;;22.20;99.90;21.90;100103;;;;553325;254;24146;-82
2022/08/21 10:44:14;;;;;;;3.87;3.17;;;22.10;99.90;21.90;100102;;;;552585;254;24160;-82
2022/08/21 10:46:50;;;;;;;3.83;3.30;;;22.20;99.90;22.00;100109;;;;553009;254;24096;-82
2022/08/21 10:49:54;;;;;;;3.40;3.20;;;22.20;99.90;21.90;100107;;;;548447;254;24134;-83
2022/08/21 10:52:37;;;;;;;4.57;3.70;;;22.20;99.90;21.90;100111;;;;552503;254;23133;-82
2022/08/21 10:55:17;;;;;;;3.53;3.33;;;22.20;99.90;22.00;100109;;;;555596;254;24170;-82
2022/08/21 10:58:03;;;;;;;3.10;2.90;;;22.30;99.90;21.90;100106;;;;555621;254;24169;-82
2022/08/21 11:00:31;;;;;;;3.37;3.07;;;22.20;99.90;21.90;100113;;;;552839;253;24209;-82
2022/08/21 11:03:05;;;;;;;3.13;2.83;;;22.20;99.90;21.80;100111;;;;552348;253;23207;-81
2022/08/21 11:05:44;;;;;;;3.30;3.10;;;22.10;99.90;21.70;100108;;;;555234;253;24173;-82
2022/08/21 11:08:21;;;;;;;3.95;2.62;;;22.10;99.90;21.50;100116;;;;551221;254;46295;-81
2022/08/21 11:11:07;;;;;;;2.90;2.70;;;21.90;99.90;21.30;100123;;;;555286;254;24165;-82
2022/08/21 11:13:54;;;;;;;2.43;2.27;;;21.60;99.90;21.10;100130;;;;551106;254;24129;-81
2022/08/21 11:16:43;;;;;;;2.60;2.40;;;21.60;99.90;21.00;100116;;;;552806;254;25234;-81
2022/08/21 11:19:26;;;;;;;2.70;2.60;;;21.40;99.90;21.00;100117;;;;552380;254;24176;-82